sensor_id;sensor_type;location;lat;lon;timestamp;P1;durP1;ratioP1;P2;durP2;ratioP2
31652;SDS011;18261;53.648;9.910;2023-07-29T00:00:29;10.82;;;6.50;;
31652;SDS011;18261;53.648;9.910;2023-07-29T00:02:55;8.80;;;5.50;;
31652;SDS011;18261;53.648;9.910;2023-07-29T00:05:21;7.60;;;4.90;;
31652;SDS011;18261;53.648;9.910;2023-07-29T00:07:47;6.93;;;4.97;;
31652;SDS011;18261;53.648;9.910;2023-07-29T00:10:13;7.03;;;4.80;;
31652;SDS011;18261;53.648;9.910;2023-07-29T00:12:39;7.50;;;4.32;;
31652;SDS011;18261;53.648;9.910;2023-07-29T00:15:05;7.20;;;4.32;;
31652;SDS011;18261;53.648;9.910;2023-07-29T00:17:31;9.15;;;4.53;;
31652;SDS011;18261;53.648;9.910;2023-07-29T00:19:57;6.35;;;4.18;;
31652;SDS011;18261;53.648;9.910;2023-07-29T00:22:23;7.80;;;4.25;;
31652;SDS011;18261;53.648;9.910;2023-07-29T00:24:52;11.02;;;4.47;;
31652;SDS011;18261;53.648;9.910;2023-07-29T00:27:20;8.63;;;4.20;;
31652;SDS011;18261;53.648;9.910;2023-07-29T00:29:46;5.57;;;3.60;;
31652;SDS011;18261;53.648;9.910;2023-07-29T00:32:12;6.35;;;3.90;;
31652;SDS011;18261;53.648;9.910;2023-07-29T00:34:38;6.40;;;4.05;;
31652;SDS011;18261;53.648;9.910;2023-07-29T00:37:04;9.68;;;4.07;;
31652;SDS011;18261;53.648;9.910;2023-07-29T00:39:31;6.43;;;4.10;;
31652;SDS011;18261;53.648;9.910;2023-07-29T00:41:57;6.93;;;4.15;;
31652;SDS011;18261;53.648;9.910;2023-07-29T00:44:23;8.80;;;4.22;;
31652;SDS011;18261;53.648;9.910;2023-07-29T00:46:52;6.63;;;3.72;;
31652;SDS011;18261;53.648;9.910;2023-07-29T00:49:19;5.32;;;4.30;;
31652;SDS011;18261;53.648;9.910;2023-07-29T00:51:45;7.70;;;4.25;;
31652;SDS011;18261;53.648;9.910;2023-07-29T00:54:12;5.93;;;4.35;;
31652;SDS011;18261;53.648;9.910;2023-07-29T00:56:39;6.57;;;4.30;;
31652;SDS011;18261;53.648;9.910;2023-07-29T00:59:05;5.03;;;3.70;;
31652;SDS011;18261;53.648;9.910;2023-07-29T01:01:31;7.78;;;4.57;;
31652;SDS011;18261;53.648;9.910;2023-07-29T01:03:57;11.15;;;3.83;;
31652;SDS011;18261;53.648;9.910;2023-07-29T01:06:29;7.35;;;3.85;;
31652;SDS011;18261;53.648;9.910;2023-07-29T01:09:02;8.23;;;4.30;;
31652;SDS011;18261;53.648;9.910;2023-07-29T01:14:26;6.95;;;4.15;;
31652;SDS011;18261;53.648;9.910;2023-07-29T01:16:48;11.25;;;4.57;;
31652;SDS011;18261;53.648;9.910;2023-07-29T01:19:23;13.75;;;4.20;;
31652;SDS011;18261;53.648;9.910;2023-07-29T01:21:53;7.82;;;4.65;;
31652;SDS011;18261;53.648;9.910;2023-07-29T01:24:20;6.88;;;4.28;;
31652;SDS011;18261;53.648;9.910;2023-07-29T01:26:46;7.80;;;3.90;;
31652;SDS011;18261;53.648;9.910;2023-07-29T01:29:12;6.28;;;4.15;;
31652;SDS011;18261;53.648;9.910;2023-07-29T01:31:40;6.28;;;4.03;;
31652;SDS011;18261;53.648;9.910;2023-07-29T01:34:15;5.78;;;3.63;;
31652;SDS011;18261;53.648;9.910;2023-07-29T01:36:43;9.52;;;4.10;;
31652;SDS011;18261;53.648;9.910;2023-07-29T01:39:11;9.20;;;3.88;;
31652;SDS011;18261;53.648;9.910;2023-07-29T01:41:37;5.85;;;4.00;;
31652;SDS011;18261;53.648;9.910;2023-07-29T01:44:04;7.82;;;4.18;;
31652;SDS011;18261;53.648;9.910;2023-07-29T01:46:34;8.02;;;4.72;;
31652;SDS011;18261;53.648;9.910;2023-07-29T01:49:00;7.53;;;4.50;;
31652;SDS011;18261;53.648;9.910;2023-07-29T01:51:26;7.55;;;4.13;;
31652;SDS011;18261;53.648;9.910;2023-07-29T01:53:52;7.93;;;4.10;;
31652;SDS011;18261;53.648;9.910;2023-07-29T01:56:20;6.82;;;4.75;;
31652;SDS011;18261;53.648;9.910;2023-07-29T01:58:46;6.78;;;4.40;;
31652;SDS011;18261;53.648;9.910;2023-07-29T02:01:12;7.70;;;5.03;;
31652;SDS011;18261;53.648;9.910;2023-07-29T02:03:38;12.98;;;5.25;;
31652;SDS011;18261;53.648;9.910;2023-07-29T02:06:04;10.23;;;5.28;;
31652;SDS011;18261;53.648;9.910;2023-07-29T02:08:30;14.38;;;6.40;;
31652;SDS011;18261;53.648;9.910;2023-07-29T02:10:56;8.98;;;5.75;;
31652;SDS011;18261;53.648;9.910;2023-07-29T02:13:22;11.15;;;6.30;;
31652;SDS011;18261;53.648;9.910;2023-07-29T02:15:48;11.88;;;6.38;;
31652;SDS011;18261;53.648;9.910;2023-07-29T02:18:14;10.73;;;6.95;;
31652;SDS011;18261;53.648;9.910;2023-07-29T02:20:40;10.57;;;6.72;;
31652;SDS011;18261;53.648;9.910;2023-07-29T02:23:13;12.30;;;6.80;;
31652;SDS011;18261;53.648;9.910;2023-07-29T02:25:39;11.02;;;7.15;;
31652;SDS011;18261;53.648;9.910;2023-07-29T02:28:05;11.65;;;6.93;;
31652;SDS011;18261;53.648;9.910;2023-07-29T02:30:31;12.32;;;8.13;;
31652;SDS011;18261;53.648;9.910;2023-07-29T02:32:57;12.88;;;7.70;;
31652;SDS011;18261;53.648;9.910;2023-07-29T02:35:24;13.45;;;8.02;;
31652;SDS011;18261;53.648;9.910;2023-07-29T02:37:50;13.15;;;7.80;;
31652;SDS011;18261;53.648;9.910;2023-07-29T02:40:16;11.30;;;7.85;;
31652;SDS011;18261;53.648;9.910;2023-07-29T02:42:42;12.07;;;8.20;;
31652;SDS011;18261;53.648;9.910;2023-07-29T02:45:08;14.23;;;8.00;;
31652;SDS011;18261;53.648;9.910;2023-07-29T02:47:36;14.68;;;8.52;;
31652;SDS011;18261;53.648;9.910;2023-07-29T02:50:02;11.77;;;8.35;;
31652;SDS011;18261;53.648;9.910;2023-07-29T02:52:28;14.20;;;8.55;;
31652;SDS011;18261;53.648;9.910;2023-07-29T02:54:54;11.35;;;7.60;;
31652;SDS011;18261;53.648;9.910;2023-07-29T02:57:20;14.05;;;7.72;;
31652;SDS011;18261;53.648;9.910;2023-07-29T02:59:46;12.50;;;8.38;;
31652;SDS011;18261;53.648;9.910;2023-07-29T03:02:12;14.25;;;8.88;;
31652;SDS011;18261;53.648;9.910;2023-07-29T03:04:38;10.30;;;7.65;;
31652;SDS011;18261;53.648;9.910;2023-07-29T03:07:04;12.85;;;7.90;;
31652;SDS011;18261;53.648;9.910;2023-07-29T03:09:30;15.05;;;9.75;;
31652;SDS011;18261;53.648;9.910;2023-07-29T03:11:56;13.85;;;9.13;;
31652;SDS011;18261;53.648;9.910;2023-07-29T03:14:22;11.85;;;8.63;;
31652;SDS011;18261;53.648;9.910;2023-07-29T03:16:48;13.32;;;9.23;;
31652;SDS011;18261;53.648;9.910;2023-07-29T03:19:14;13.57;;;8.80;;
31652;SDS011;18261;53.648;9.910;2023-07-29T03:21:41;13.63;;;9.45;;
31652;SDS011;18261;53.648;9.910;2023-07-29T03:24:07;14.20;;;10.32;;
31652;SDS011;18261;53.648;9.910;2023-07-29T03:26:33;11.98;;;8.98;;
31652;SDS011;18261;53.648;9.910;2023-07-29T03:28:59;15.15;;;10.35;;
31652;SDS011;18261;53.648;9.910;2023-07-29T03:31:25;12.02;;;10.25;;
31652;SDS011;18261;53.648;9.910;2023-07-29T03:33:51;16.95;;;11.60;;
31652;SDS011;18261;53.648;9.910;2023-07-29T03:36:17;15.20;;;10.00;;
31652;SDS011;18261;53.648;9.910;2023-07-29T03:38:44;15.35;;;12.27;;
31652;SDS011;18261;53.648;9.910;2023-07-29T03:41:10;17.85;;;11.40;;
31652;SDS011;18261;53.648;9.910;2023-07-29T03:43:36;15.75;;;11.05;;
31652;SDS011;18261;53.648;9.910;2023-07-29T03:46:02;19.33;;;12.57;;
31652;SDS011;18261;53.648;9.910;2023-07-29T03:48:28;17.52;;;12.02;;
31652;SDS011;18261;53.648;9.910;2023-07-29T03:50:56;19.95;;;12.75;;
31652;SDS011;18261;53.648;9.910;2023-07-29T03:53:22;18.60;;;13.43;;
31652;SDS011;18261;53.648;9.910;2023-07-29T03:55:48;14.38;;;11.15;;
31652;SDS011;18261;53.648;9.910;2023-07-29T03:58:15;20.52;;;13.13;;
31652;SDS011;18261;53.648;9.910;2023-07-29T04:00:41;19.10;;;13.30;;
31652;SDS011;18261;53.648;9.910;2023-07-29T04:03:08;20.88;;;13.18;;
31652;SDS011;18261;53.648;9.910;2023-07-29T04:05:34;20.58;;;14.07;;
31652;SDS011;18261;53.648;9.910;2023-07-29T04:08:00;23.48;;;17.65;;
31652;SDS011;18261;53.648;9.910;2023-07-29T04:10:26;25.40;;;17.10;;
31652;SDS011;18261;53.648;9.910;2023-07-29T04:12:52;28.67;;;17.17;;
31652;SDS011;18261;53.648;9.910;2023-07-29T04:15:18;32.85;;;21.77;;
31652;SDS011;18261;53.648;9.910;2023-07-29T04:17:44;29.90;;;20.73;;
31652;SDS011;18261;53.648;9.910;2023-07-29T04:20:10;30.02;;;18.90;;
31652;SDS011;18261;53.648;9.910;2023-07-29T04:22:36;34.13;;;22.02;;
31652;SDS011;18261;53.648;9.910;2023-07-29T04:25:02;39.42;;;25.73;;
31652;SDS011;18261;53.648;9.910;2023-07-29T04:27:29;34.72;;;24.23;;
31652;SDS011;18261;53.648;9.910;2023-07-29T04:29:55;40.00;;;23.85;;
31652;SDS011;18261;53.648;9.910;2023-07-29T04:32:21;42.00;;;27.35;;
31652;SDS011;18261;53.648;9.910;2023-07-29T04:34:47;44.72;;;28.98;;
31652;SDS011;18261;53.648;9.910;2023-07-29T04:37:13;43.95;;;27.77;;
31652;SDS011;18261;53.648;9.910;2023-07-29T04:39:39;39.92;;;26.65;;
31652;SDS011;18261;53.648;9.910;2023-07-29T04:42:05;49.63;;;29.95;;
31652;SDS011;18261;53.648;9.910;2023-07-29T04:44:31;53.17;;;33.38;;
31652;SDS011;18261;53.648;9.910;2023-07-29T04:46:57;44.85;;;29.48;;
31652;SDS011;18261;53.648;9.910;2023-07-29T04:49:23;50.83;;;31.83;;
31652;SDS011;18261;53.648;9.910;2023-07-29T04:51:49;47.85;;;30.70;;
31652;SDS011;18261;53.648;9.910;2023-07-29T04:54:15;51.55;;;31.58;;
31652;SDS011;18261;53.648;9.910;2023-07-29T04:56:41;57.47;;;33.50;;
31652;SDS011;18261;53.648;9.910;2023-07-29T04:59:07;48.60;;;29.85;;
31652;SDS011;18261;53.648;9.910;2023-07-29T05:01:33;56.58;;;34.03;;
31652;SDS011;18261;53.648;9.910;2023-07-29T05:03:59;49.33;;;28.98;;
31652;SDS011;18261;53.648;9.910;2023-07-29T05:06:25;51.85;;;30.98;;
31652;SDS011;18261;53.648;9.910;2023-07-29T05:08:51;63.22;;;29.33;;
31652;SDS011;18261;53.648;9.910;2023-07-29T05:11:17;45.63;;;29.98;;
31652;SDS011;18261;53.648;9.910;2023-07-29T05:13:43;51.97;;;33.78;;
31652;SDS011;18261;53.648;9.910;2023-07-29T05:16:09;48.72;;;28.00;;
31652;SDS011;18261;53.648;9.910;2023-07-29T05:18:35;40.13;;;27.70;;
31652;SDS011;18261;53.648;9.910;2023-07-29T05:21:01;53.50;;;30.77;;
31652;SDS011;18261;53.648;9.910;2023-07-29T05:23:27;51.47;;;27.88;;
31652;SDS011;18261;53.648;9.910;2023-07-29T05:25:53;42.08;;;27.13;;
31652;SDS011;18261;53.648;9.910;2023-07-29T05:28:19;45.95;;;30.05;;
31652;SDS011;18261;53.648;9.910;2023-07-29T05:30:45;48.13;;;29.73;;
31652;SDS011;18261;53.648;9.910;2023-07-29T05:33:11;57.13;;;34.65;;
31652;SDS011;18261;53.648;9.910;2023-07-29T05:35:37;52.28;;;30.65;;
31652;SDS011;18261;53.648;9.910;2023-07-29T05:38:03;47.03;;;30.50;;
31652;SDS011;18261;53.648;9.910;2023-07-29T05:40:31;43.00;;;27.83;;
31652;SDS011;18261;53.648;9.910;2023-07-29T05:42:57;41.70;;;27.15;;
31652;SDS011;18261;53.648;9.910;2023-07-29T05:45:23;44.05;;;29.20;;
31652;SDS011;18261;53.648;9.910;2023-07-29T05:47:49;41.75;;;28.83;;
31652;SDS011;18261;53.648;9.910;2023-07-29T05:50:15;40.47;;;27.30;;
31652;SDS011;18261;53.648;9.910;2023-07-29T05:52:41;35.88;;;26.90;;
31652;SDS011;18261;53.648;9.910;2023-07-29T05:55:07;41.60;;;27.08;;
31652;SDS011;18261;53.648;9.910;2023-07-29T05:57:33;36.53;;;25.13;;
31652;SDS011;18261;53.648;9.910;2023-07-29T05:59:59;36.95;;;24.98;;
31652;SDS011;18261;53.648;9.910;2023-07-29T06:02:25;30.92;;;22.45;;
31652;SDS011;18261;53.648;9.910;2023-07-29T06:04:51;27.70;;;21.05;;
31652;SDS011;18261;53.648;9.910;2023-07-29T06:07:17;31.50;;;21.40;;
31652;SDS011;18261;53.648;9.910;2023-07-29T06:09:43;34.70;;;21.27;;
31652;SDS011;18261;53.648;9.910;2023-07-29T06:12:10;38.17;;;23.20;;
31652;SDS011;18261;53.648;9.910;2023-07-29T06:14:35;34.10;;;24.30;;
31652;SDS011;18261;53.648;9.910;2023-07-29T06:17:01;35.63;;;25.13;;
31652;SDS011;18261;53.648;9.910;2023-07-29T06:19:27;28.98;;;21.75;;
31652;SDS011;18261;53.648;9.910;2023-07-29T06:21:55;32.72;;;23.33;;
31652;SDS011;18261;53.648;9.910;2023-07-29T06:24:21;36.22;;;24.17;;
31652;SDS011;18261;53.648;9.910;2023-07-29T06:26:47;37.42;;;23.17;;
31652;SDS011;18261;53.648;9.910;2023-07-29T06:29:13;36.92;;;23.92;;
31652;SDS011;18261;53.648;9.910;2023-07-29T06:31:39;31.63;;;21.63;;
31652;SDS011;18261;53.648;9.910;2023-07-29T06:34:04;28.33;;;21.38;;
31652;SDS011;18261;53.648;9.910;2023-07-29T06:36:31;32.30;;;22.27;;
31652;SDS011;18261;53.648;9.910;2023-07-29T06:38:56;30.10;;;21.13;;
31652;SDS011;18261;53.648;9.910;2023-07-29T06:41:22;40.58;;;25.98;;
31652;SDS011;18261;53.648;9.910;2023-07-29T06:43:48;33.03;;;23.63;;
31652;SDS011;18261;53.648;9.910;2023-07-29T06:46:14;36.72;;;22.02;;
31652;SDS011;18261;53.648;9.910;2023-07-29T06:48:40;35.08;;;23.15;;
31652;SDS011;18261;53.648;9.910;2023-07-29T06:51:06;32.17;;;22.20;;
31652;SDS011;18261;53.648;9.910;2023-07-29T06:53:32;30.42;;;19.65;;
31652;SDS011;18261;53.648;9.910;2023-07-29T06:55:58;31.70;;;22.90;;
31652;SDS011;18261;53.648;9.910;2023-07-29T06:58:24;34.20;;;22.90;;
31652;SDS011;18261;53.648;9.910;2023-07-29T07:00:50;32.72;;;21.10;;
31652;SDS011;18261;53.648;9.910;2023-07-29T07:03:16;27.92;;;21.20;;
31652;SDS011;18261;53.648;9.910;2023-07-29T07:05:42;30.17;;;19.67;;
31652;SDS011;18261;53.648;9.910;2023-07-29T07:08:08;29.10;;;19.15;;
31652;SDS011;18261;53.648;9.910;2023-07-29T07:10:34;31.77;;;21.65;;
31652;SDS011;18261;53.648;9.910;2023-07-29T07:13:00;30.95;;;20.85;;
31652;SDS011;18261;53.648;9.910;2023-07-29T07:15:27;29.48;;;21.05;;
31652;SDS011;18261;53.648;9.910;2023-07-29T07:17:53;36.83;;;21.40;;
31652;SDS011;18261;53.648;9.910;2023-07-29T07:20:19;35.75;;;23.75;;
31652;SDS011;18261;53.648;9.910;2023-07-29T07:22:45;32.63;;;21.75;;
31652;SDS011;18261;53.648;9.910;2023-07-29T07:25:11;33.40;;;23.08;;
31652;SDS011;18261;53.648;9.910;2023-07-29T07:27:37;34.88;;;22.17;;
31652;SDS011;18261;53.648;9.910;2023-07-29T07:30:03;35.10;;;24.23;;
31652;SDS011;18261;53.648;9.910;2023-07-29T07:32:29;37.80;;;25.00;;
31652;SDS011;18261;53.648;9.910;2023-07-29T07:34:55;39.92;;;25.20;;
31652;SDS011;18261;53.648;9.910;2023-07-29T07:37:21;42.80;;;26.67;;
31652;SDS011;18261;53.648;9.910;2023-07-29T07:39:47;37.33;;;24.92;;
31652;SDS011;18261;53.648;9.910;2023-07-29T07:42:13;32.90;;;23.50;;
31652;SDS011;18261;53.648;9.910;2023-07-29T07:44:40;34.63;;;23.67;;
31652;SDS011;18261;53.648;9.910;2023-07-29T07:47:06;31.83;;;23.13;;
31652;SDS011;18261;53.648;9.910;2023-07-29T07:49:32;40.47;;;24.15;;
31652;SDS011;18261;53.648;9.910;2023-07-29T07:51:58;35.42;;;25.52;;
31652;SDS011;18261;53.648;9.910;2023-07-29T07:54:24;35.40;;;22.95;;
31652;SDS011;18261;53.648;9.910;2023-07-29T07:56:50;36.80;;;23.80;;
31652;SDS011;18261;53.648;9.910;2023-07-29T07:59:16;34.35;;;22.20;;
31652;SDS011;18261;53.648;9.910;2023-07-29T08:01:42;32.70;;;21.35;;
31652;SDS011;18261;53.648;9.910;2023-07-29T08:04:08;33.25;;;22.55;;
31652;SDS011;18261;53.648;9.910;2023-07-29T08:06:34;37.28;;;23.27;;
31652;SDS011;18261;53.648;9.910;2023-07-29T08:09:00;31.80;;;21.17;;
31652;SDS011;18261;53.648;9.910;2023-07-29T08:11:26;37.00;;;22.27;;
31652;SDS011;18261;53.648;9.910;2023-07-29T08:13:52;41.58;;;21.15;;
31652;SDS011;18261;53.648;9.910;2023-07-29T08:16:18;35.63;;;22.77;;
31652;SDS011;18261;53.648;9.910;2023-07-29T08:18:44;35.33;;;20.80;;
31652;SDS011;18261;53.648;9.910;2023-07-29T08:21:10;36.05;;;21.98;;
31652;SDS011;18261;53.648;9.910;2023-07-29T08:23:36;34.97;;;22.70;;
31652;SDS011;18261;53.648;9.910;2023-07-29T08:26:03;38.58;;;21.63;;
31652;SDS011;18261;53.648;9.910;2023-07-29T08:30:56;35.30;;;21.73;;
31652;SDS011;18261;53.648;9.910;2023-07-29T08:33:22;36.63;;;22.20;;
31652;SDS011;18261;53.648;9.910;2023-07-29T08:35:48;39.00;;;24.67;;
31652;SDS011;18261;53.648;9.910;2023-07-29T08:38:14;39.90;;;24.77;;
31652;SDS011;18261;53.648;9.910;2023-07-29T08:40:52;46.83;;;26.23;;
31652;SDS011;18261;53.648;9.910;2023-07-29T08:43:19;42.05;;;25.58;;
31652;SDS011;18261;53.648;9.910;2023-07-29T08:45:46;39.72;;;24.77;;
31652;SDS011;18261;53.648;9.910;2023-07-29T08:48:12;44.67;;;26.48;;
31652;SDS011;18261;53.648;9.910;2023-07-29T08:50:38;39.58;;;24.58;;
31652;SDS011;18261;53.648;9.910;2023-07-29T08:53:04;42.47;;;26.35;;
31652;SDS011;18261;53.648;9.910;2023-07-29T08:55:31;43.30;;;25.38;;
31652;SDS011;18261;53.648;9.910;2023-07-29T08:57:57;53.22;;;27.23;;
31652;SDS011;18261;53.648;9.910;2023-07-29T09:00:23;37.63;;;25.55;;
31652;SDS011;18261;53.648;9.910;2023-07-29T09:02:50;36.55;;;24.45;;
31652;SDS011;18261;53.648;9.910;2023-07-29T09:05:17;32.60;;;23.98;;
31652;SDS011;18261;53.648;9.910;2023-07-29T09:07:43;40.47;;;25.48;;
31652;SDS011;18261;53.648;9.910;2023-07-29T09:10:09;39.33;;;24.48;;
31652;SDS011;18261;53.648;9.910;2023-07-29T09:12:36;35.30;;;23.23;;
31652;SDS011;18261;53.648;9.910;2023-07-29T09:15:02;39.45;;;23.00;;
31652;SDS011;18261;53.648;9.910;2023-07-29T09:17:30;33.70;;;20.55;;
31652;SDS011;18261;53.648;9.910;2023-07-29T09:19:57;38.13;;;20.90;;
31652;SDS011;18261;53.648;9.910;2023-07-29T09:22:24;29.33;;;19.85;;
31652;SDS011;18261;53.648;9.910;2023-07-29T09:24:52;34.50;;;20.67;;
31652;SDS011;18261;53.648;9.910;2023-07-29T09:27:28;27.35;;;18.83;;
31652;SDS011;18261;53.648;9.910;2023-07-29T09:29:57;39.90;;;20.23;;
31652;SDS011;18261;53.648;9.910;2023-07-29T09:32:23;31.20;;;19.60;;
31652;SDS011;18261;53.648;9.910;2023-07-29T09:34:49;29.17;;;19.05;;
31652;SDS011;18261;53.648;9.910;2023-07-29T09:37:22;35.83;;;20.02;;
31652;SDS011;18261;53.648;9.910;2023-07-29T09:39:48;39.08;;;20.05;;
31652;SDS011;18261;53.648;9.910;2023-07-29T09:42:21;59.30;;;30.75;;
31652;SDS011;18261;53.648;9.910;2023-07-29T09:44:48;28.67;;;18.40;;
31652;SDS011;18261;53.648;9.910;2023-07-29T09:47:24;28.15;;;15.98;;
31652;SDS011;18261;53.648;9.910;2023-07-29T09:49:51;22.73;;;15.43;;
31652;SDS011;18261;53.648;9.910;2023-07-29T09:52:17;22.67;;;13.55;;
31652;SDS011;18261;53.648;9.910;2023-07-29T09:54:44;21.27;;;13.38;;
31652;SDS011;18261;53.648;9.910;2023-07-29T09:57:13;21.30;;;12.18;;
31652;SDS011;18261;53.648;9.910;2023-07-29T09:59:39;20.48;;;10.70;;
31652;SDS011;18261;53.648;9.910;2023-07-29T10:02:13;17.23;;;9.52;;
31652;SDS011;18261;53.648;9.910;2023-07-29T10:04:40;13.80;;;9.23;;
31652;SDS011;18261;53.648;9.910;2023-07-29T10:07:06;14.85;;;9.68;;
31652;SDS011;18261;53.648;9.910;2023-07-29T10:09:33;12.32;;;8.90;;
31652;SDS011;18261;53.648;9.910;2023-07-29T10:11:59;11.55;;;7.70;;
31652;SDS011;18261;53.648;9.910;2023-07-29T10:14:26;9.35;;;6.70;;
31652;SDS011;18261;53.648;9.910;2023-07-29T10:16:53;11.52;;;6.25;;
31652;SDS011;18261;53.648;9.910;2023-07-29T10:19:20;8.75;;;5.20;;
31652;SDS011;18261;53.648;9.910;2023-07-29T10:21:46;10.70;;;5.43;;
31652;SDS011;18261;53.648;9.910;2023-07-29T10:24:15;9.43;;;6.65;;
31652;SDS011;18261;53.648;9.910;2023-07-29T10:26:47;9.43;;;6.40;;
31652;SDS011;18261;53.648;9.910;2023-07-29T10:29:17;7.30;;;5.75;;
31652;SDS011;18261;53.648;9.910;2023-07-29T10:31:46;8.85;;;5.53;;
31652;SDS011;18261;53.648;9.910;2023-07-29T10:34:12;7.90;;;5.78;;
31652;SDS011;18261;53.648;9.910;2023-07-29T10:36:41;6.25;;;4.85;;
31652;SDS011;18261;53.648;9.910;2023-07-29T10:39:18;7.88;;;5.45;;
31652;SDS011;18261;53.648;9.910;2023-07-29T10:42:00;10.30;;;4.60;;
31652;SDS011;18261;53.648;9.910;2023-07-29T10:47:11;6.13;;;4.18;;
31652;SDS011;18261;53.648;9.910;2023-07-29T10:49:39;6.53;;;3.50;;
31652;SDS011;18261;53.648;9.910;2023-07-29T10:52:06;4.55;;;3.22;;
31652;SDS011;18261;53.648;9.910;2023-07-29T10:54:41;6.30;;;3.35;;
31652;SDS011;18261;53.648;9.910;2023-07-29T10:57:07;4.65;;;3.35;;
31652;SDS011;18261;53.648;9.910;2023-07-29T10:59:34;5.57;;;3.53;;
31652;SDS011;18261;53.648;9.910;2023-07-29T11:02:00;7.93;;;4.88;;
31652;SDS011;18261;53.648;9.910;2023-07-29T11:04:27;6.20;;;3.05;;
31652;SDS011;18261;53.648;9.910;2023-07-29T11:17:33;5.88;;;2.90;;
31652;SDS011;18261;53.648;9.910;2023-07-29T11:20:02;7.93;;;3.95;;
31652;SDS011;18261;53.648;9.910;2023-07-29T11:22:29;9.32;;;3.75;;
31652;SDS011;18261;53.648;9.910;2023-07-29T11:24:56;9.48;;;5.10;;
31652;SDS011;18261;53.648;9.910;2023-07-29T11:27:22;8.15;;;4.25;;
31652;SDS011;18261;53.648;9.910;2023-07-29T11:29:48;10.27;;;5.03;;
31652;SDS011;18261;53.648;9.910;2023-07-29T11:32:15;8.98;;;3.97;;
31652;SDS011;18261;53.648;9.910;2023-07-29T11:34:41;7.10;;;3.20;;
31652;SDS011;18261;53.648;9.910;2023-07-29T11:37:09;5.88;;;4.07;;
31652;SDS011;18261;53.648;9.910;2023-07-29T11:39:41;6.70;;;4.45;;
31652;SDS011;18261;53.648;9.910;2023-07-29T11:42:10;10.60;;;4.97;;
31652;SDS011;18261;53.648;9.910;2023-07-29T11:44:36;6.65;;;4.63;;
31652;SDS011;18261;53.648;9.910;2023-07-29T11:47:06;5.25;;;4.43;;
31652;SDS011;18261;53.648;9.910;2023-07-29T11:49:33;5.60;;;3.72;;
31652;SDS011;18261;53.648;9.910;2023-07-29T11:51:59;9.23;;;4.07;;
31652;SDS011;18261;53.648;9.910;2023-07-29T11:54:25;5.88;;;4.07;;
31652;SDS011;18261;53.648;9.910;2023-07-29T11:56:51;6.18;;;4.45;;
31652;SDS011;18261;53.648;9.910;2023-07-29T11:59:17;7.57;;;3.90;;
31652;SDS011;18261;53.648;9.910;2023-07-29T12:01:43;6.85;;;3.83;;
31652;SDS011;18261;53.648;9.910;2023-07-29T12:04:10;5.25;;;3.50;;
31652;SDS011;18261;53.648;9.910;2023-07-29T12:06:37;6.78;;;3.88;;
31652;SDS011;18261;53.648;9.910;2023-07-29T12:09:03;5.05;;;3.70;;
31652;SDS011;18261;53.648;9.910;2023-07-29T12:11:30;6.30;;;3.75;;
31652;SDS011;18261;53.648;9.910;2023-07-29T12:13:56;4.32;;;2.88;;
31652;SDS011;18261;53.648;9.910;2023-07-29T12:16:22;3.33;;;2.58;;
31652;SDS011;18261;53.648;9.910;2023-07-29T12:18:49;4.40;;;2.53;;
31652;SDS011;18261;53.648;9.910;2023-07-29T12:21:16;7.25;;;2.78;;
31652;SDS011;18261;53.648;9.910;2023-07-29T12:23:42;3.38;;;2.50;;
31652;SDS011;18261;53.648;9.910;2023-07-29T12:26:08;5.40;;;2.85;;
31652;SDS011;18261;53.648;9.910;2023-07-29T12:28:34;3.28;;;2.75;;
31652;SDS011;18261;53.648;9.910;2023-07-29T12:31:00;5.22;;;2.70;;
31652;SDS011;18261;53.648;9.910;2023-07-29T12:33:36;3.95;;;2.90;;
31652;SDS011;18261;53.648;9.910;2023-07-29T12:36:04;6.72;;;2.70;;
31652;SDS011;18261;53.648;9.910;2023-07-29T12:38:30;2.25;;;1.98;;
31652;SDS011;18261;53.648;9.910;2023-07-29T12:40:56;3.05;;;2.20;;
31652;SDS011;18261;53.648;9.910;2023-07-29T12:43:22;5.82;;;2.45;;
31652;SDS011;18261;53.648;9.910;2023-07-29T12:45:51;2.30;;;1.90;;
31652;SDS011;18261;53.648;9.910;2023-07-29T12:48:17;4.22;;;1.90;;
31652;SDS011;18261;53.648;9.910;2023-07-29T12:50:44;3.85;;;2.25;;
31652;SDS011;18261;53.648;9.910;2023-07-29T12:53:09;3.38;;;2.20;;
31652;SDS011;18261;53.648;9.910;2023-07-29T12:55:36;3.13;;;1.90;;
31652;SDS011;18261;53.648;9.910;2023-07-29T12:58:02;3.97;;;1.90;;
31652;SDS011;18261;53.648;9.910;2023-07-29T13:00:28;3.08;;;1.90;;
31652;SDS011;18261;53.648;9.910;2023-07-29T13:02:54;3.50;;;2.00;;
31652;SDS011;18261;53.648;9.910;2023-07-29T13:05:20;3.17;;;2.03;;
31652;SDS011;18261;53.648;9.910;2023-07-29T13:07:46;3.45;;;1.80;;
31652;SDS011;18261;53.648;9.910;2023-07-29T13:10:13;3.42;;;2.17;;
31652;SDS011;18261;53.648;9.910;2023-07-29T13:12:39;3.35;;;1.80;;
31652;SDS011;18261;53.648;9.910;2023-07-29T13:15:05;2.47;;;2.20;;
31652;SDS011;18261;53.648;9.910;2023-07-29T13:17:32;5.45;;;2.20;;
31652;SDS011;18261;53.648;9.910;2023-07-29T13:19:58;4.47;;;1.80;;
31652;SDS011;18261;53.648;9.910;2023-07-29T13:22:24;3.45;;;1.77;;
31652;SDS011;18261;53.648;9.910;2023-07-29T13:24:50;2.83;;;1.85;;
31652;SDS011;18261;53.648;9.910;2023-07-29T13:27:16;3.88;;;2.30;;
31652;SDS011;18261;53.648;9.910;2023-07-29T13:29:42;4.25;;;2.17;;
31652;SDS011;18261;53.648;9.910;2023-07-29T13:32:08;6.78;;;2.67;;
31652;SDS011;18261;53.648;9.910;2023-07-29T13:34:35;4.88;;;2.30;;
31652;SDS011;18261;53.648;9.910;2023-07-29T13:37:01;5.22;;;2.30;;
31652;SDS011;18261;53.648;9.910;2023-07-29T13:39:27;6.82;;;2.15;;
31652;SDS011;18261;53.648;9.910;2023-07-29T13:41:53;7.57;;;2.30;;
31652;SDS011;18261;53.648;9.910;2023-07-29T13:44:19;3.58;;;2.17;;
31652;SDS011;18261;53.648;9.910;2023-07-29T13:46:45;8.02;;;2.08;;
31652;SDS011;18261;53.648;9.910;2023-07-29T13:49:11;4.38;;;2.00;;
31652;SDS011;18261;53.648;9.910;2023-07-29T13:51:37;6.93;;;2.17;;
31652;SDS011;18261;53.648;9.910;2023-07-29T13:54:03;5.13;;;2.20;;
31652;SDS011;18261;53.648;9.910;2023-07-29T13:56:29;5.93;;;2.20;;
31652;SDS011;18261;53.648;9.910;2023-07-29T13:58:55;3.47;;;1.85;;
31652;SDS011;18261;53.648;9.910;2023-07-29T14:01:21;3.60;;;1.75;;
31652;SDS011;18261;53.648;9.910;2023-07-29T14:03:47;5.50;;;2.08;;
31652;SDS011;18261;53.648;9.910;2023-07-29T14:06:13;5.82;;;1.67;;
31652;SDS011;18261;53.648;9.910;2023-07-29T14:08:39;5.72;;;1.90;;
31652;SDS011;18261;53.648;9.910;2023-07-29T14:11:06;6.07;;;2.13;;
31652;SDS011;18261;53.648;9.910;2023-07-29T14:13:33;3.65;;;1.90;;
31652;SDS011;18261;53.648;9.910;2023-07-29T14:16:02;5.15;;;1.90;;
31652;SDS011;18261;53.648;9.910;2023-07-29T14:18:28;9.52;;;2.58;;
31652;SDS011;18261;53.648;9.910;2023-07-29T14:20:54;8.48;;;2.72;;
31652;SDS011;18261;53.648;9.910;2023-07-29T14:23:20;6.80;;;2.50;;
31652;SDS011;18261;53.648;9.910;2023-07-29T14:25:46;3.22;;;1.90;;
31652;SDS011;18261;53.648;9.910;2023-07-29T14:28:12;6.70;;;1.70;;
31652;SDS011;18261;53.648;9.910;2023-07-29T14:30:38;4.90;;;2.30;;
31652;SDS011;18261;53.648;9.910;2023-07-29T14:33:06;5.80;;;1.90;;
31652;SDS011;18261;53.648;9.910;2023-07-29T14:35:32;5.47;;;1.90;;
31652;SDS011;18261;53.648;9.910;2023-07-29T14:37:58;6.22;;;2.22;;
31652;SDS011;18261;53.648;9.910;2023-07-29T14:40:24;4.03;;;1.67;;
31652;SDS011;18261;53.648;9.910;2023-07-29T14:42:50;2.95;;;2.00;;
31652;SDS011;18261;53.648;9.910;2023-07-29T14:45:16;5.68;;;1.90;;
31652;SDS011;18261;53.648;9.910;2023-07-29T14:47:42;5.28;;;1.90;;